Fantasy — H3GS — position and weather

sailwx.info

Track history (hours):
 
Tides and Currents Weather Stations Pressure Air Temp Water Temp Dewpoint Dewpoint Depression Visibility Wind Speed Wind Dir Waves Ship Positions

Fantasy

Operator: Carnival Cruise Lines

Last reported at 2015-Mar-27 10:18 UTC. Time now 2015-Mar-31 16:54 UTC.
Position N 27°11' W 079°46'.

Type: Ship. MMSI: 353486000.

Date/timePositionNaut miles runAvg speedWind from/ knotsBaromVisibWave heightAir tempDewpointWater temp
2015-Mar-27 10:18N 27°11' W 079°46'1517.4
2015-Mar-27 09:27N 26°59' W 079°36'1616.5
2015-Mar-27 08:29N 26°46' W 079°24'3715.1
2015-Mar-27 06:03N 26°19' W 078°57'714.4
2015-Mar-27 05:33N 26°16' W 078°49'1514.6
2015-Mar-27 04:33N 26°13' W 078°34'1514.5
2015-Mar-27 03:33N 26°09' W 078°18'2114.8
2015-Mar-27 02:09N 26°03' W 077°56'  
2015-Mar-20 02:33N 27°10' W 079°46'1815.8
2015-Mar-20 01:24N 26°55' W 079°34'1416.0
2015-Mar-20 00:33N 26°44' W 079°26'9 0.2
2015-Mar-17 23:05N 26°52' W 079°30'  
Track history (hours):
 
Tides and Currents Weather Stations Pressure Air Temp Water Temp Dewpoint Dewpoint Depression Visibility Wind Speed Wind Dir Waves Ship Positions

Fantasy

Operator: Carnival Cruise Lines

Last reported at 2015-Mar-27 10:18 UTC. Time now 2015-Mar-31 16:54 UTC.
Position N 27°11' W 079°46'.

Type: Ship. MMSI: 353486000.

Date/timePositionNaut miles runAvg speedWind from/ knotsBaromVisibWave heightAir tempDewpointWater temp
2015-Mar-27 10:18N 27°11' W 079°46'1517.4
2015-Mar-27 09:27N 26°59' W 079°36'1616.5
2015-Mar-27 08:29N 26°46' W 079°24'3715.1
2015-Mar-27 06:03N 26°19' W 078°57'714.4
2015-Mar-27 05:33N 26°16' W 078°49'1514.6
2015-Mar-27 04:33N 26°13' W 078°34'1514.5
2015-Mar-27 03:33N 26°09' W 078°18'2114.8
2015-Mar-27 02:09N 26°03' W 077°56'  
2015-Mar-20 02:33N 27°10' W 079°46'1815.8
2015-Mar-20 01:24N 26°55' W 079°34'1416.0
2015-Mar-20 00:33N 26°44' W 079°26'9 0.2
2015-Mar-17 23:05N 26°52' W 079°30'  

Dump ship's entire track history